Time;durP1;ratioP1;P1;durP2;ratioP2;P2;SDS_P1;SDS_P2;PMS_P1;PMS_P2;Temp;Humidity;BMP_temperature;BMP_pressure;BME280_temperature;BME280_humidity;BME280_pressure;Samples;Min_cycle;Max_cycle;Signal;HPM_P1;HPM_P2
2021/01/27 00:00:34;;;;;;;12.27;5.87;;;;;;;-0.03;91.86;96428.84;5097511;28;20448;-83
2021/01/27 00:03:00;;;;;;;8.37;5.67;;;;;;;-0.04;91.73;96432.00;5097531;28;20439;-83
2021/01/27 00:05:30;;;;;;;8.23;5.30;;;;;;;-0.04;92.09;96432.00;5098532;28;20448;-83
2021/01/27 00:07:57;;;;;;;7.90;5.73;;;;;;;0.07;92.12;96431.34;5098834;28;20440;-83
2021/01/27 00:10:24;;;;;;;10.07;6.87;;;;;;;0.15;91.93;96429.75;5096528;28;20437;-83
2021/01/27 00:12:51;;;;;;;7.97;5.70;;;;;;;0.16;91.52;96428.56;5097993;28;20480;-83
2021/01/27 00:15:20;;;;;;;10.67;7.47;;;;;;;0.15;91.66;96429.75;5097921;28;20496;-83
2021/01/27 00:17:47;;;;;;;7.77;5.90;;;;;;;0.18;91.85;96428.81;5098065;28;20451;-83
2021/01/27 00:20:16;;;;;;;9.97;6.53;;;;;;;0.32;91.24;96426.03;5098152;28;20454;-83
2021/01/27 00:22:42;;;;;;;12.30;6.67;;;;;;;0.24;91.84;96422.38;5101761;28;20470;-83
2021/01/27 00:25:10;;;;;;;10.93;6.40;;;;;;;0.27;91.39;96426.72;5098495;28;20429;-83
2021/01/27 00:27:37;;;;;;;12.83;6.13;;;;;;;0.46;91.23;96414.59;5096306;28;20449;-83
2021/01/27 00:30:06;;;;;;;8.97;5.67;;;;;;;0.47;90.97;96417.97;5096802;28;20581;-83
2021/01/27 00:32:33;;;;;;;10.33;6.60;;;;;;;0.44;90.99;96398.38;5096731;28;20484;-83
2021/01/27 00:34:59;;;;;;;9.87;6.13;;;;;;;0.46;91.18;96395.28;5095137;28;20448;-84
2021/01/27 00:37:25;;;;;;;8.70;5.80;;;;;;;0.45;91.13;96396.47;5095514;28;20447;-84
2021/01/27 00:39:52;;;;;;;9.63;6.50;;;;;;;0.45;91.13;96397.19;5095356;28;20435;-84
2021/01/27 00:42:18;;;;;;;11.80;6.70;;;;;;;0.43;91.16;96399.59;5095485;28;20465;-85
2021/01/27 00:44:45;;;;;;;8.30;6.20;;;;;;;0.40;91.65;96391.84;5094971;28;20456;-84
2021/01/27 00:47:12;;;;;;;9.37;5.90;;;;;;;0.27;92.15;96394.16;5099365;28;20441;-83
2021/01/27 00:49:39;;;;;;;15.37;7.90;;;;;;;0.26;92.15;96390.03;5096269;28;20536;-84
2021/01/27 00:52:05;;;;;;;9.77;5.80;;;;;;;0.22;92.44;96384.25;5096189;28;21006;-83
2021/01/27 00:54:32;;;;;;;10.77;7.50;;;;;;;0.20;92.49;96382.06;5093631;28;20445;-83
2021/01/27 00:56:58;;;;;;;9.43;6.53;;;;;;;0.14;92.59;96372.59;5076179;28;20429;-83
2021/01/27 00:59:24;;;;;;;13.90;6.80;;;;;;;0.09;92.72;96375.94;5076732;28;20441;-83
2021/01/27 01:01:52;;;;;;;15.20;6.63;;;;;;;0.02;93.12;96371.78;5076449;28;20469;-83
2021/01/27 01:04:18;;;;;;;7.93;6.30;;;;;;;0.07;93.52;96370.34;5078328;28;20445;-83
2021/01/27 01:06:44;;;;;;;11.63;6.10;;;;;;;0.17;92.71;96364.44;5076515;28;20950;-83
2021/01/27 01:09:11;;;;;;;12.87;6.07;;;;;;;0.19;92.44;96354.06;5079136;28;20424;-82
2021/01/27 01:11:37;;;;;;;7.93;6.13;;;;;;;0.21;92.58;96362.28;5101428;28;20488;-83
2021/01/27 01:14:03;;;;;;;12.33;6.33;;;;;;;0.17;92.74;96366.34;5119322;28;20424;-85
2021/01/27 01:16:30;;;;;;;10.60;7.43;;;;;;;0.16;92.29;96373.56;5119280;28;20515;-84
2021/01/27 01:18:57;;;;;;;10.60;6.60;;;;;;;0.22;93.26;96369.03;5119378;28;20461;-84
2021/01/27 01:21:23;;;;;;;12.40;6.50;;;;;;;0.29;92.93;96365.22;5107121;28;20476;-83
2021/01/27 01:23:50;;;;;;;8.20;6.10;;;;;;;0.33;92.87;96366.47;5096952;28;20933;-83
2021/01/27 01:26:16;;;;;;;10.07;6.80;;;;;;;0.33;92.90;96361.19;5096905;28;20433;-83
2021/01/27 01:28:43;;;;;;;11.80;6.43;;;;;;;0.30;93.06;96367.44;5097222;28;20479;-82
2021/01/27 01:31:09;;;;;;;11.10;6.60;;;;;;;0.33;93.44;96363.81;5099013;28;20528;-82
2021/01/27 01:33:36;;;;;;;13.20;7.33;;;;;;;0.28;93.19;96351.22;5099950;28;20515;-83
2021/01/27 01:36:04;;;;;;;12.23;6.63;;;;;;;0.30;93.09;96358.72;5096584;28;21025;-83
2021/01/27 01:38:30;;;;;;;11.37;7.10;;;;;;;0.34;93.09;96346.00;5096206;28;20440;-83
2021/01/27 01:40:58;;;;;;;14.03;6.40;;;;;;;0.42;92.78;96341.69;5096613;28;20458;-84
2021/01/27 01:43:27;;;;;;;11.43;7.47;;;;;;;0.35;92.67;96344.78;5096692;28;20994;-83
2021/01/27 01:45:56;;;;;;;10.17;6.03;;;;;;;0.33;92.81;96336.56;5112666;28;20420;-85
2021/01/27 01:48:29;;;;;;;11.70;6.70;;;;;;;0.35;92.69;96328.84;5118943;28;20503;-85
2021/01/27 01:50:59;;;;;;;17.47;6.70;;;;;;;0.35;92.20;96318.25;5118826;28;20436;-84
2021/01/27 01:53:26;;;;;;;9.70;6.50;;;;;;;0.32;92.81;96319.91;5096894;28;20469;-83
2021/01/27 01:55:56;;;;;;;12.47;7.20;;;;;;;0.25;92.38;96332.91;5094081;28;20844;-84
2021/01/27 01:58:23;;;;;;;9.77;7.23;;;;;;;0.27;92.76;96325.19;5094143;28;20429;-84
2021/01/27 02:00:54;;;;;;;11.40;7.70;;;;;;;0.22;92.96;96312.63;5094162;28;20447;-84
2021/01/27 02:03:21;;;;;;;11.43;6.60;;;;;;;0.18;92.96;96314.75;5093803;28;20421;-84
2021/01/27 02:05:48;;;;;;;12.27;7.37;;;;;;;0.25;93.01;96316.97;5094146;28;20429;-84
2021/01/27 02:08:16;;;;;;;11.63;7.47;;;;;;;0.25;92.79;96312.38;5094081;28;20436;-84
2021/01/27 02:10:43;;;;;;;10.07;6.70;;;;;;;0.13;93.45;96308.19;5094142;28;20433;-84
2021/01/27 02:13:24;;;;;;;10.67;7.00;;;;;;;0.16;93.40;96304.59;5094053;28;20488;-85
2021/01/27 02:16:07;;;;;;;13.23;6.30;;;;;;;0.21;93.71;96289.94;5094161;28;20844;-84
2021/01/27 02:19:21;;;;;;;13.87;6.40;;;;;;;0.18;93.51;96290.88;5093927;28;20905;-84
2021/01/27 02:22:25;;;;;;;9.57;6.20;;;;;;;0.30;93.43;96279.16;5093833;28;20460;-84
2021/01/27 02:25:33;;;;;;;12.23;6.10;;;;;;;0.28;92.86;96284.22;5072289;28;20917;-84
2021/01/27 02:28:04;;;;;;;14.53;6.60;;;;;;;0.23;92.73;96282.22;5093962;28;20425;-84
2021/01/27 02:31:00;;;;;;;9.93;6.90;;;;;;;0.19;93.17;96292.34;5093538;28;20462;-83
2021/01/27 02:33:59;;;;;;;12.50;6.43;;;;;;;0.14;93.25;96290.38;5097330;28;20468;-83
2021/01/27 02:36:29;;;;;;;10.13;6.37;;;;;;;0.10;93.52;96271.28;5099613;28;20448;-83
2021/01/27 02:39:01;;;;;;;7.73;5.77;;;;;;;0.07;93.33;96286.22;5100089;28;20441;-83
2021/01/27 02:41:34;;;;;;;10.27;6.70;;;;;;;0.05;93.71;96279.94;5099684;28;20460;-83
2021/01/27 02:44:05;;;;;;;10.90;6.73;;;;;;;0.02;93.74;96288.84;5100383;28;20524;-83
2021/01/27 02:46:37;;;;;;;10.23;6.80;;;;;;;0.02;94.17;96289.56;5099031;28;20493;-83
2021/01/27 02:49:12;;;;;;;19.50;8.07;;;;;;;0.04;94.00;96283.78;5097734;28;20425;-83
2021/01/27 02:51:46;;;;;;;14.33;7.83;;;;;;;0.06;93.85;96273.44;5100757;28;20479;-82
2021/01/27 02:54:18;;;;;;;8.63;6.50;;;;;;;0.05;93.74;96269.34;5104096;28;20432;-83
2021/01/27 02:56:51;;;;;;;11.80;7.47;;;;;;;0.03;93.91;96275.13;5100045;28;20409;-84
2021/01/27 02:59:23;;;;;;;16.40;7.07;;;;;;;-0.01;93.73;96274.59;5097609;28;20423;-84
2021/01/27 03:01:57;;;;;;;10.73;6.93;;;;;;;-0.07;94.12;96266.63;5096852;28;20448;-84
2021/01/27 03:04:29;;;;;;;7.83;5.20;;;;;;;-0.05;94.02;96272.16;5098067;28;20427;-83
2021/01/27 03:06:58;;;;;;;11.10;6.50;;;;;;;0.02;94.17;96273.66;5100552;28;20909;-83
2021/01/27 03:09:31;;;;;;;12.97;6.80;;;;;;;0.02;93.96;96267.63;5100341;28;20458;-83
2021/01/27 03:11:58;;;;;;;9.57;6.30;;;;;;;0.06;94.07;96263.56;5100437;28;20511;-83
2021/01/27 03:14:24;;;;;;;12.07;6.63;;;;;;;0.04;94.04;96267.88;5099103;28;20437;-84
2021/01/27 03:17:00;;;;;;;10.23;5.27;;;;;;;0.02;93.96;96262.31;5096114;28;20425;-83
2021/01/27 03:19:34;;;;;;;10.83;5.97;;;;;;;-0.02;93.85;96254.56;5096934;28;20823;-85
2021/01/27 03:22:05;;;;;;;10.47;6.70;;;;;;;-0.02;94.04;96263.25;5096307;28;20539;-84
2021/01/27 03:24:39;;;;;;;8.40;6.40;;;;;;;-0.06;94.21;96264.66;5096833;28;20791;-84
2021/01/27 03:27:10;;;;;;;8.10;5.63;;;;;;;-0.05;94.02;96258.91;5096485;28;20482;-84
2021/01/27 03:29:44;;;;;;;13.47;5.77;;;;;;;-0.05;93.98;96256.25;5096651;28;20455;-84
2021/01/27 03:32:19;;;;;;;7.23;5.37;;;;;;;-0.10;94.08;96262.25;5096513;28;20472;-84
2021/01/27 03:34:49;;;;;;;9.00;6.40;;;;;;;-0.11;94.18;96265.38;5096859;28;20409;-84
2021/01/27 03:37:26;;;;;;;9.63;5.20;;;;;;;-0.13;94.38;96251.88;5096676;28;20437;-84
2021/01/27 03:39:58;;;;;;;12.60;7.30;;;;;;;-0.10;94.06;96246.34;5099077;28;20480;-82
2021/01/27 03:42:43;;;;;;;12.60;5.77;;;;;;;0.00;94.19;96242.28;5098646;28;20486;-84
2021/01/27 03:45:13;;;;;;;13.03;5.90;;;;;;;0.02;93.73;96243.75;5096116;28;20456;-84
2021/01/27 03:47:45;;;;;;;6.00;5.43;;;;;;;0.05;93.35;96250.78;5096335;28;20428;-84
2021/01/27 03:50:16;;;;;;;10.73;5.80;;;;;;;0.07;93.32;96235.09;5096343;28;20425;-85
2021/01/27 03:52:48;;;;;;;9.90;6.60;;;;;;;0.16;92.86;96240.94;5096381;28;20472;-85
2021/01/27 03:55:21;;;;;;;9.00;4.87;;;;;;;0.26;92.20;96239.56;5096148;28;20769;-85
2021/01/27 03:57:57;;;;;;;9.97;5.67;;;;;;;0.14;92.14;96232.00;5096302;28;20507;-86
2021/01/27 04:00:31;;;;;;;10.43;5.77;;;;;;;0.19;91.78;96228.69;5096332;28;20488;-86
2021/01/27 04:03:05;;;;;;;10.47;5.33;;;;;;;0.20;91.98;96228.19;5096066;28;20489;-86
2021/01/27 04:05:32;;;;;;;14.10;5.70;;;;;;;0.10;91.97;96224.28;5095928;28;20425;-85
2021/01/27 04:07:59;;;;;;;13.30;6.23;;;;;;;0.04;92.25;96234.13;5096121;28;20428;-85
2021/01/27 04:10:25;;;;;;;10.20;5.50;;;;;;;0.02;92.70;96217.97;5096074;28;20456;-85
2021/01/27 04:12:52;;;;;;;7.33;5.00;;;;;;;0.09;92.34;96220.19;5110845;28;20496;-85
2021/01/27 04:15:18;;;;;;;7.23;5.50;;;;;;;0.14;92.04;96222.13;5120377;28;20483;-86
2021/01/27 04:17:44;;;;;;;9.10;5.47;;;;;;;0.20;91.81;96227.47;5120143;28;20420;-86
2021/01/27 04:20:12;;;;;;;13.37;5.50;;;;;;;0.19;91.81;96220.72;5118860;28;20440;-85
2021/01/27 04:22:38;;;;;;;7.30;4.67;;;;;;;0.17;91.53;96223.13;5096120;28;20534;-84
2021/01/27 04:25:07;;;;;;;8.67;5.40;;;;;;;0.14;92.03;96208.16;5095734;28;20441;-84
2021/01/27 04:27:34;;;;;;;12.17;5.03;;;;;;;0.09;92.06;96198.25;5094885;28;20429;-84
2021/01/27 04:30:00;;;;;;;8.00;5.00;;;;;;;0.21;91.85;96186.50;5094748;28;20506;-85
2021/01/27 04:32:27;;;;;;;8.37;4.40;;;;;;;0.31;90.77;96182.44;5095603;28;20560;-85
2021/01/27 04:34:53;;;;;;;6.20;4.73;;;;;;;0.33;90.99;96170.16;5094877;28;20429;-84
2021/01/27 04:37:19;;;;;;;7.80;4.67;;;;;;;0.28;90.69;96167.47;5094926;28;20531;-83
2021/01/27 04:39:46;;;;;;;8.50;4.03;;;;;;;0.42;90.36;96156.69;5095867;28;20516;-84
2021/01/27 04:42:13;;;;;;;9.53;4.80;;;;;;;0.43;89.79;96146.78;5095406;28;20532;-83
2021/01/27 04:44:39;;;;;;;6.57;4.67;;;;;;;0.46;89.67;96140.53;5095764;28;20507;-84
2021/01/27 04:47:16;;;;;;;8.73;4.47;;;;;;;0.42;89.80;96126.75;5094873;28;20429;-84
2021/01/27 04:49:47;;;;;;;7.50;4.27;;;;;;;0.43;90.05;96136.91;5094978;28;20439;-84
2021/01/27 04:52:18;;;;;;;6.57;4.53;;;;;;;0.33;90.36;96145.53;5094957;28;20481;-85
2021/01/27 04:55:02;;;;;;;8.20;4.90;;;;;;;0.38;90.42;96137.59;5095002;28;20524;-85
2021/01/27 04:57:49;;;;;;;8.17;5.13;;;;;;;0.37;90.67;96138.81;5095200;28;20439;-86
2021/01/27 05:00:28;;;;;;;6.80;4.47;;;;;;;0.42;90.77;96138.09;5096400;28;20797;-85
2021/01/27 05:03:13;;;;;;;10.30;5.03;;;;;;;0.40;90.13;96137.88;5096105;28;20590;-85
2021/01/27 05:05:44;;;;;;;5.67;4.10;;;;;;;0.47;90.40;96129.41;5094967;28;20490;-86
2021/01/27 05:08:15;;;;;;;6.90;4.40;;;;;;;0.44;90.26;96142.91;5094556;28;20419;-85
2021/01/27 05:10:50;;;;;;;6.47;4.37;;;;;;;0.44;89.70;96142.91;5094852;28;20425;-85
2021/01/27 05:13:26;;;;;;;9.70;5.40;;;;;;;0.43;90.27;96136.19;5094296;28;20471;-85
2021/01/27 05:15:54;;;;;;;14.50;5.23;;;;;;;0.51;89.53;96119.31;5094738;28;20438;-86
2021/01/27 05:18:20;;;;;;;9.80;4.10;;;;;;;0.49;89.77;96124.38;5094709;28;20459;-86
2021/01/27 05:20:48;;;;;;;7.70;4.30;;;;;;;0.50;89.41;96107.22;5094534;28;20437;-86
2021/01/27 05:23:15;;;;;;;6.87;3.87;;;;;;;0.49;89.49;96105.81;5094877;28;20523;-86
2021/01/27 05:25:45;;;;;;;7.53;4.13;;;;;;;0.47;89.60;96097.56;5094298;28;20508;-85
2021/01/27 05:28:18;;;;;;;4.60;4.10;;;;;;;0.47;89.45;96102.19;5094611;28;20428;-85
2021/01/27 05:30:52;;;;;;;6.70;4.40;;;;;;;0.48;89.34;96091.06;5094651;28;20441;-85
2021/01/27 05:33:18;;;;;;;6.63;4.80;;;;;;;0.45;89.54;96099.25;5094705;28;20457;-85
2021/01/27 05:35:46;;;;;;;8.50;4.43;;;;;;;0.48;89.55;96095.66;5095613;28;20524;-84
2021/01/27 05:38:25;;;;;;;7.30;4.27;;;;;;;0.50;89.40;96095.91;5095527;28;20429;-85
2021/01/27 05:40:53;;;;;;;7.33;5.10;;;;;;;0.48;89.76;96100.97;5094628;28;20513;-85
2021/01/27 05:43:24;;;;;;;7.27;4.27;;;;;;;0.54;89.60;96091.09;5094537;28;20440;-86
2021/01/27 05:45:52;;;;;;;9.03;4.50;;;;;;;0.54;89.77;96081.19;5096686;28;20425;-84
2021/01/27 05:48:26;;;;;;;6.17;4.37;;;;;;;0.60;89.11;96083.13;5097313;28;20936;-84
2021/01/27 05:50:54;;;;;;;9.63;4.37;;;;;;;0.61;88.47;96084.59;5096111;28;20467;-84
2021/01/27 05:53:23;;;;;;;9.33;3.90;;;;;;;0.69;88.44;96078.31;5096490;28;20565;-84
2021/01/27 05:55:58;;;;;;;8.30;4.67;;;;;;;0.70;88.05;96074.47;5095935;28;20438;-84
2021/01/27 05:58:25;;;;;;;11.00;4.23;;;;;;;0.75;87.70;96073.03;5096057;28;20424;-84
2021/01/27 06:00:55;;;;;;;7.93;3.60;;;;;;;0.65;87.80;96072.53;5096676;28;20435;-84
2021/01/27 06:03:23;;;;;;;8.03;3.90;;;;;;;0.62;88.12;96080.72;5097191;28;20450;-84
2021/01/27 06:05:51;;;;;;;5.27;4.43;;;;;;;0.67;88.28;96085.31;5096384;28;20455;-84
2021/01/27 06:08:20;;;;;;;9.80;4.83;;;;;;;0.60;88.13;96091.81;5099506;28;20476;-84
2021/01/27 06:10:47;;;;;;;6.00;4.53;;;;;;;0.63;88.51;96095.47;5100678;28;20424;-83
2021/01/27 06:13:19;;;;;;;7.13;3.83;;;;;;;0.60;88.68;96091.09;5101182;28;20490;-84
2021/01/27 06:15:46;;;;;;;7.27;4.00;;;;;;;0.56;88.67;96085.31;5100326;28;20448;-84
2021/01/27 06:18:25;;;;;;;7.07;4.43;;;;;;;0.71;87.96;96080.50;5100241;28;20494;-84
2021/01/27 06:21:07;;;;;;;9.10;4.30;;;;;;;0.73;87.72;96065.53;5100374;28;20420;-84
2021/01/27 06:24:01;;;;;;;7.80;4.83;;;;;;;0.66;87.17;96067.97;5100197;28;20799;-84
2021/01/27 06:27:09;;;;;;;9.40;4.50;;;;;;;0.59;87.84;96068.44;5100068;28;20409;-84
2021/01/27 06:29:58;;;;;;;12.00;4.10;;;;;;;0.69;87.62;96064.34;5100521;28;20444;-85
2021/01/27 06:32:44;;;;;;;7.73;4.07;;;;;;;0.73;87.55;96068.19;5098843;28;20486;-85
2021/01/27 06:35:32;;;;;;;8.87;4.43;;;;;;;0.69;87.41;96067.00;5098257;28;20416;-86
2021/01/27 06:38:37;;;;;;;8.10;4.23;;;;;;;0.71;87.08;96065.31;5098553;28;20429;-85
2021/01/27 06:41:19;;;;;;;5.10;3.90;;;;;;;0.67;87.14;96067.47;5087093;28;20882;-85
2021/01/27 06:43:59;;;;;;;3.97;3.57;;;;;;;0.69;87.59;96073.00;5099059;28;20452;-85
2021/01/27 06:47:12;;;;;;;6.83;4.10;;;;;;;0.71;87.11;96073.25;5101042;28;20436;-84
2021/01/27 06:50:07;;;;;;;10.33;3.90;;;;;;;0.73;87.18;96076.16;5098565;28;20959;-86
2021/01/27 06:53:15;;;;;;;8.70;3.70;;;;;;;0.70;87.37;96069.16;5097508;28;20566;-84
2021/01/27 06:56:00;;;;;;;7.00;4.50;;;;;;;0.71;87.04;96070.63;5100547;28;20501;-82
2021/01/27 06:58:51;;;;;;;10.20;4.93;;;;;;;0.74;87.00;96076.88;5081634;28;20426;-85
2021/01/27 07:01:34;;;;;;;5.63;3.83;;;;;;;0.86;86.93;96070.38;5088089;28;20448;-84
2021/01/27 07:04:31;;;;;;;5.77;3.53;;;;;;;0.80;86.27;96067.72;5098709;28;20429;-87
2021/01/27 07:07:26;;;;;;;4.90;4.00;;;;;;;0.96;85.85;96074.25;5099596;28;20431;-86
2021/01/27 07:10:28;;;;;;;7.40;3.90;;;;;;;0.98;85.43;96072.56;5108929;28;20842;-85
2021/01/27 07:13:06;;;;;;;7.80;4.27;;;;;;;1.03;84.88;96074.47;5112083;28;20471;-86
2021/01/27 07:15:52;;;;;;;6.50;3.40;;;;;;;1.08;84.54;96076.41;5120337;28;20496;-85
2021/01/27 07:18:53;;;;;;;5.90;3.60;;;;;;;1.05;84.61;96077.38;5120375;28;20440;-86
2021/01/27 07:21:26;;;;;;;5.80;3.73;;;;;;;1.03;84.65;96084.41;5116975;28;20459;-87
2021/01/27 07:24:02;;;;;;;5.83;3.10;;;;;;;0.99;84.07;96081.97;5099362;28;20417;-87
2021/01/27 07:26:36;;;;;;;4.73;3.40;;;;;;;1.02;84.64;96085.59;5098362;28;20425;-86
2021/01/27 07:29:09;;;;;;;5.27;3.80;;;;;;;0.94;85.32;96087.28;5097961;28;20443;-87
2021/01/27 07:31:42;;;;;;;9.77;4.17;;;;;;;1.12;85.20;96092.13;5098574;28;20551;-88
2021/01/27 07:34:16;;;;;;;6.83;3.97;;;;;;;1.53;85.10;96092.31;5099393;28;20520;-88
2021/01/27 07:36:57;;;;;;;5.90;4.00;;;;;;;1.71;83.28;96110.41;5098760;28;20528;-87
2021/01/27 07:39:28;;;;;;;5.93;3.87;;;;;;;1.79;82.71;96105.31;5099077;28;20450;-88
2021/01/27 07:42:06;;;;;;;5.00;3.37;;;;;;;1.97;81.72;96105.50;5099114;28;21029;-87
2021/01/27 07:44:34;;;;;;;5.80;4.00;;;;;;;1.88;81.86;96119.06;5098395;28;20420;-86
2021/01/27 07:47:07;;;;;;;7.37;3.50;;;;;;;1.92;81.57;96113.50;5098092;28;20509;-87
2021/01/27 07:49:49;;;;;;;6.30;3.47;;;;;;;1.87;82.62;96109.66;5098390;28;20503;-88
2021/01/27 07:52:24;;;;;;;5.07;3.47;;;;;;;1.88;83.21;96111.09;5098228;28;20849;-86
2021/01/27 07:55:00;;;;;;;6.90;3.80;;;;;;;1.75;83.88;96115.47;5099393;28;20474;-87
2021/01/27 07:57:41;;;;;;;6.47;4.00;;;;;;;1.76;84.68;96104.34;5099661;28;20436;-87
2021/01/27 08:00:58;;;;;;;13.23;4.50;;;;;;;1.59;85.07;96101.00;5120223;28;20447;-83
2021/01/27 08:03:36;;;;;;;6.33;4.20;;;;;;;1.51;86.64;96105.38;5119635;28;20491;-85
2021/01/27 08:06:06;;;;;;;7.90;4.47;;;;;;;1.49;87.62;96105.88;5106791;28;20428;-87
2021/01/27 08:08:44;;;;;;;4.53;3.90;;;;;;;1.55;88.08;96103.19;5098178;28;20951;-88
2021/01/27 08:11:16;;;;;;;5.43;3.93;;;;;;;1.63;88.42;96111.41;5077251;28;20525;-88
2021/01/27 08:13:44;;;;;;;6.73;3.73;;;;;;;1.53;88.93;96114.31;5077784;28;20561;-88
2021/01/27 08:16:37;;;;;;;7.37;4.20;;;;;;;1.43;89.45;96123.03;5078708;28;20430;-87
2021/01/27 08:19:30;;;;;;;6.53;3.73;;;;;;;1.44;89.98;96122.53;5079638;28;20483;-88
2021/01/27 08:21:59;;;;;;;7.60;4.57;;;;;;;1.43;89.92;96134.38;5080260;28;20473;-89
2021/01/27 08:24:56;;;;;;;6.07;3.90;;;;;;;1.31;91.35;96126.91;5080107;28;20430;-87
2021/01/27 08:27:34;;;;;;;5.57;4.20;;;;;;;1.41;92.22;96126.16;5077833;28;20429;-86
2021/01/27 08:30:31;;;;;;;8.50;4.70;;;;;;;1.35;92.11;96132.66;5078592;28;20448;-88
2021/01/27 08:33:40;;;;;;;10.33;3.77;;;;;;;1.36;91.99;96131.47;5077462;28;20485;-86
2021/01/27 08:36:10;;;;;;;6.70;4.20;;;;;;;1.41;92.40;96128.81;5077925;28;20949;-86
2021/01/27 08:38:41;;;;;;;5.07;4.10;;;;;;;1.45;92.37;96129.28;5085324;28;20432;-85
2021/01/27 08:41:12;;;;;;;7.53;3.73;;;;;;;1.37;92.44;96116.97;5098603;28;20452;-87
2021/01/27 08:43:42;;;;;;;5.63;4.37;;;;;;;1.41;92.80;96117.47;5098230;28;20431;-86
2021/01/27 08:46:33;;;;;;;7.47;4.40;;;;;;;1.39;92.41;96125.19;5097987;28;20409;-86
2021/01/27 08:49:00;;;;;;;5.77;4.77;;;;;;;1.37;93.58;96117.72;5098113;28;20912;-87
2021/01/27 08:51:50;;;;;;;7.63;4.83;;;;;;;1.37;93.29;96127.63;5106789;28;20528;-83
2021/01/27 08:54:45;;;;;;;7.97;4.20;;;;;;;1.41;93.30;96120.84;5116899;28;20417;-85
2021/01/27 08:57:27;;;;;;;4.40;3.73;;;;;;;1.53;93.11;96124.97;5106417;28;20429;-85
2021/01/27 09:00:00;;;;;;;6.57;3.30;;;;;;;1.60;92.18;96119.13;5099452;28;20808;-85
2021/01/27 09:02:44;;;;;;;6.50;2.97;;;;;;;1.44;92.34;96117.22;5100463;28;20465;-83
2021/01/27 09:05:37;;;;;;;9.03;4.20;;;;;;;1.42;92.90;96113.59;5097623;28;20462;-85
2021/01/27 09:08:23;;;;;;;6.13;4.47;;;;;;;1.41;92.96;96106.84;5093478;28;20448;-84
2021/01/27 09:10:56;;;;;;;4.20;3.80;;;;;;;1.47;92.98;96110.22;5097391;28;20913;-84
2021/01/27 09:13:24;;;;;;;7.03;4.13;;;;;;;1.37;93.74;96112.41;5096404;28;20472;-89
2021/01/27 09:15:53;;;;;;;8.53;4.27;;;;;;;1.47;93.67;96113.56;5099068;28;20455;-91
2021/01/27 09:18:23;;;;;;;8.33;4.30;;;;;;;1.61;92.91;96107.28;5102458;28;20464;-88
2021/01/27 09:20:49;;;;;;;7.00;4.23;;;;;;;1.59;93.00;96115.03;5100843;28;20440;-91
2021/01/27 09:23:18;;;;;;;11.30;4.90;;;;;;;1.53;93.25;96109.00;5100289;28;20420;-87
2021/01/27 09:25:47;;;;;;;10.27;5.40;;;;;;;1.43;93.47;96107.06;5099977;28;20469;-88
2021/01/27 09:28:19;;;;;;;8.37;5.20;;;;;;;1.35;93.92;96106.09;5102214;28;20445;-86
2021/01/27 09:30:46;;;;;;;6.37;5.10;;;;;;;1.27;93.78;96108.53;5096477;28;20456;-86
2021/01/27 09:33:15;;;;;;;10.97;5.67;;;;;;;1.45;93.63;96094.00;5096853;28;20495;-85
2021/01/27 09:35:44;;;;;;;6.20;4.77;;;;;;;1.43;93.53;96097.16;5096417;28;20432;-86
2021/01/27 09:38:14;;;;;;;9.43;4.80;;;;;;;1.41;93.18;96094.25;5097128;28;20509;-87
2021/01/27 09:40:44;;;;;;;8.60;5.73;;;;;;;1.40;93.63;96097.41;5098432;28;20427;-89
2021/01/27 09:43:14;;;;;;;7.10;4.50;;;;;;;1.38;93.61;96097.19;5097775;28;20433;-87
2021/01/27 09:45:43;;;;;;;11.63;5.60;;;;;;;1.36;94.11;96088.94;5099158;28;20869;-87
2021/01/27 09:48:12;;;;;;;12.47;4.87;;;;;;;1.51;93.50;96089.41;5100425;28;20444;-91
2021/01/27 09:50:39;;;;;;;11.50;4.07;;;;;;;1.45;93.54;96088.69;5099311;28;20424;-90
2021/01/27 09:53:20;;;;;;;4.80;4.00;;;;;;;1.35;93.83;96079.53;5097501;28;20520;-88
2021/01/27 09:55:48;;;;;;;8.00;4.57;;;;;;;1.44;93.44;96076.63;5100353;28;20444;-91
2021/01/27 09:58:15;;;;;;;7.43;3.87;;;;;;;1.44;93.37;96073.97;5098250;28;20429;-86
2021/01/27 10:00:42;;;;;;;12.57;4.23;;;;;;;1.36;94.02;96073.00;5097489;28;20511;-88
2021/01/27 10:03:27;;;;;;;6.70;3.90;;;;;;;1.42;93.53;96071.78;5097570;28;20517;-88
2021/01/27 10:05:54;;;;;;;6.83;3.97;;;;;;;1.33;93.85;96064.06;5097192;28;20879;-89
2021/01/27 10:08:25;;;;;;;6.77;3.87;;;;;;;1.33;94.12;96069.41;5097449;28;20497;-89
2021/01/27 10:11:03;;;;;;;5.57;3.50;;;;;;;1.36;94.36;96057.06;5106758;28;20417;-86
2021/01/27 10:13:32;;;;;;;4.73;3.60;;;;;;;1.32;94.38;96059.97;5102138;28;20882;-89
2021/01/27 10:16:07;;;;;;;7.23;3.30;;;;;;;1.34;94.45;96046.94;5111860;28;20459;-89
2021/01/27 10:18:35;;;;;;;6.50;3.60;;;;;;;1.35;94.95;96040.38;5117463;28;20433;-88
2021/01/27 10:21:04;;;;;;;4.57;2.70;;;;;;;1.31;94.00;96039.94;5116999;28;20423;-90
2021/01/27 10:23:38;;;;;;;7.20;3.17;;;;;;;1.38;94.55;96026.13;5115722;28;20448;-89
2021/01/27 10:26:37;;;;;;;5.10;3.10;;;;;;;1.38;94.63;96038.72;5098222;28;20432;-90
2021/01/27 10:29:21;;;;;;;7.13;2.53;;;;;;;1.57;94.14;96034.31;5097393;28;20499;-90
2021/01/27 10:31:51;;;;;;;5.07;3.97;;;;;;;1.58;94.37;96031.16;5098112;28;20814;-90
2021/01/27 10:34:40;;;;;;;7.33;2.93;;;;;;;1.63;93.70;96027.75;5097420;28;20484;-91
2021/01/27 10:37:26;;;;;;;5.10;2.70;;;;;;;1.70;94.16;96026.53;5087565;28;20442;-90
2021/01/27 10:40:25;;;;;;;5.50;2.53;;;;;;;1.80;94.16;96026.97;5078689;28;20422;-88
2021/01/27 10:42:54;;;;;;;5.03;2.27;;;;;;;1.78;93.83;96030.16;5014575;28;20522;-87
2021/01/27 10:45:36;;;;;;;9.10;2.63;;;;;;;1.98;93.39;96024.47;5065918;28;20452;-90
2021/01/27 10:48:24;;;;;;;6.83;3.43;;;;;;;1.96;93.18;96016.28;5085809;28;20512;-88
2021/01/27 10:50:52;;;;;;;7.30;2.53;;;;;;;2.09;91.95;96029.78;5091159;28;20425;-87
2021/01/27 10:53:20;;;;;;;6.03;3.30;;;;;;;2.02;92.63;96024.22;5088776;28;20480;-86
2021/01/27 10:55:53;;;;;;;6.30;3.77;;;;;;;2.06;92.28;96020.09;5094130;28;20437;-87
2021/01/27 10:58:20;;;;;;;7.80;3.73;;;;;;;2.02;91.42;96013.59;5095752;28;20483;-88
2021/01/27 11:00:47;;;;;;;7.10;3.87;;;;;;;2.06;91.41;96014.06;5095537;28;20521;-87
2021/01/27 11:03:14;;;;;;;6.80;3.67;;;;;;;1.98;92.04;96019.16;5094392;28;20435;-86
2021/01/27 11:05:41;;;;;;;3.90;3.27;;;;;;;1.90;92.75;96018.25;5092252;28;20466;-86
2021/01/27 11:08:12;;;;;;;8.87;4.17;;;;;;;1.94;92.52;96031.28;5090050;28;20472;-88
2021/01/27 11:10:38;;;;;;;7.17;3.33;;;;;;;1.92;91.96;96029.09;5090139;28;20422;-88
2021/01/27 11:13:05;;;;;;;5.70;3.83;;;;;;;2.00;92.21;96026.66;5090077;28;20481;-86
2021/01/27 11:15:32;;;;;;;8.80;4.77;;;;;;;2.01;92.59;96023.50;5089970;28;20441;-86
2021/01/27 11:17:59;;;;;;;7.30;4.40;;;;;;;2.04;92.13;96029.78;5091564;28;20473;-90
2021/01/27 11:20:27;;;;;;;7.70;5.77;;;;;;;1.96;92.55;96024.25;5093338;28;20508;-89
2021/01/27 11:22:55;;;;;;;6.63;3.83;;;;;;;1.95;92.32;96022.06;5090818;28;20900;-91
2021/01/27 11:25:23;;;;;;;5.20;3.37;;;;;;;1.96;92.56;96024.25;5093399;28;20438;-86
2021/01/27 11:27:53;;;;;;;5.53;4.97;;;;;;;1.95;92.78;96020.16;5093496;28;20423;-86
2021/01/27 11:30:23;;;;;;;5.07;3.30;;;;;;;1.91;92.13;96026.94;5091912;28;20458;-87
2021/01/27 11:32:50;;;;;;;5.03;3.03;;;;;;;1.96;92.38;96018.94;5092850;28;20560;-87
2021/01/27 11:35:18;;;;;;;6.10;3.43;;;;;;;2.01;92.54;96028.81;5093632;28;20489;-89
2021/01/27 11:37:46;;;;;;;7.83;3.40;;;;;;;1.93;92.57;96019.19;5095619;28;20462;-86
2021/01/27 11:40:14;;;;;;;5.57;3.40;;;;;;;2.12;92.60;96014.75;5090859;28;20437;-87
2021/01/27 11:42:41;;;;;;;5.80;3.57;;;;;;;2.25;91.68;96008.88;5090155;28;20462;-87
2021/01/27 11:45:09;;;;;;;3.50;2.50;;;;;;;2.22;91.64;95999.94;5090468;28;20444;-87
2021/01/27 11:47:37;;;;;;;9.50;3.10;;;;;;;2.38;91.00;95998.41;5096342;28;20422;-87
2021/01/27 11:50:05;;;;;;;4.43;2.70;;;;;;;2.25;90.55;95987.59;5095793;28;20434;-88
2021/01/27 11:52:32;;;;;;;11.50;3.50;;;;;;;2.32;90.97;95984.41;5096785;28;20477;-87
2021/01/27 11:54:59;;;;;;;2.90;2.60;;;;;;;2.42;90.08;95988.19;5096810;28;20445;-88
2021/01/27 11:57:26;;;;;;;3.63;2.10;;;;;;;2.40;89.89;95978.06;5096921;28;20449;-89
2021/01/27 11:59:52;;;;;;;3.70;2.63;;;;;;;2.33;89.97;95972.53;5096025;28;20463;-88
2021/01/27 12:02:19;;;;;;;4.83;2.73;;;;;;;2.37;90.10;95970.31;5096968;28;20452;-93
2021/01/27 12:04:47;;;;;;;2.20;1.93;;;;;;;2.42;90.15;95977.53;5098937;28;20421;-93
2021/01/27 12:07:13;;;;;;;6.30;2.33;;;;;;;2.44;89.97;95962.53;5099581;28;20476;-95
2021/01/27 12:09:40;;;;;;;13.50;1.87;;;;;;;2.47;89.83;95960.81;5099494;28;20505;-94